Time;durP1;ratioP1;P1;durP2;ratioP2;P2;SDS_P1;SDS_P2;PMS_P1;PMS_P2;Temp;Humidity;BMP_temperature;BMP_pressure;BME280_temperature;BME280_humidity;BME280_pressure;Samples;Min_cycle;Max_cycle;Signal;HPM_P1;HPM_P2
2023/10/20 00:01:50;;;;;;;34.10;16.73;;;16.80;99.90;;;;;;5014632;28;20382;-70
2023/10/20 00:04:16;;;;;;;37.30;17.80;;;16.80;99.90;;;;;;5015845;28;20018;-70
2023/10/20 00:06:42;;;;;;;44.60;18.63;;;16.80;99.90;;;;;;5016196;28;20030;-70
2023/10/20 00:09:11;;;;;;;36.88;17.90;;;16.80;99.90;;;;;;5015811;28;20481;-70
2023/10/20 00:11:41;;;;;;;32.33;17.50;;;16.80;99.90;;;;;;5015794;28;20477;-70
2023/10/20 00:14:07;;;;;;;34.08;17.10;;;16.90;99.90;;;;;;5015835;28;20057;-70
2023/10/20 00:16:33;;;;;;;35.42;18.35;;;16.80;99.90;;;;;;5016045;28;20022;-70
2023/10/20 00:19:02;;;;;;;34.47;17.33;;;16.80;99.90;;;;;;5014313;28;20034;-70
2023/10/20 00:21:29;;;;;;;36.10;17.35;;;16.90;99.90;;;;;;4996251;28;20030;-70
2023/10/20 00:23:55;;;;;;;36.20;19.88;;;16.90;99.90;;;;;;4996079;28;20030;-70
2023/10/20 00:26:21;;;;;;;51.28;19.80;;;16.90;99.90;;;;;;4996108;28;20038;-70
2023/10/20 00:28:47;;;;;;;44.20;19.48;;;16.90;99.90;;;;;;4994851;28;20030;-70
2023/10/20 00:31:13;;;;;;;29.52;17.30;;;16.90;99.90;;;;;;4994501;28;20026;-72
2023/10/20 00:33:39;;;;;;;36.25;17.88;;;16.90;99.90;;;;;;4995797;28;20057;-71
2023/10/20 00:36:08;;;;;;;37.33;18.17;;;17.00;99.90;;;;;;4995978;28;20026;-70
2023/10/20 00:38:34;;;;;;;34.22;18.45;;;16.90;99.90;;;;;;4995783;28;20026;-70
2023/10/20 00:41:02;;;;;;;33.53;18.25;;;17.00;99.90;;;;;;4995726;28;20056;-70
2023/10/20 00:43:38;;;;;;;37.55;17.55;;;16.90;99.90;;;;;;4995768;28;20040;-70
2023/10/20 00:46:06;;;;;;;33.28;17.63;;;17.00;99.90;;;;;;4995827;28;20057;-70
2023/10/20 00:48:34;;;;;;;35.70;16.98;;;17.00;99.90;;;;;;4995440;28;20034;-70
2023/10/20 00:51:07;;;;;;;35.78;18.30;;;17.00;99.90;;;;;;4995219;28;20034;-70
2023/10/20 00:53:37;;;;;;;31.23;17.67;;;17.00;99.90;;;;;;4995549;28;20301;-71
2023/10/20 00:56:04;;;;;;;35.22;18.13;;;17.00;99.90;;;;;;4995581;28;20030;-70
2023/10/20 00:58:31;;;;;;;43.63;18.73;;;17.00;99.90;;;;;;4993003;28;20470;-70
2023/10/20 01:00:57;;;;;;;37.17;18.17;;;17.00;99.90;;;;;;4992714;28;20050;-70
2023/10/20 01:03:27;;;;;;;28.45;15.70;;;17.00;99.90;;;;;;4992274;28;20092;-70
2023/10/20 01:05:53;;;;;;;34.17;18.35;;;17.00;99.90;;;;;;4993133;28;20031;-70
2023/10/20 01:08:19;;;;;;;30.63;15.80;;;17.00;99.90;;;;;;4995196;28;20076;-71
2023/10/20 01:10:47;;;;;;;30.65;16.98;;;17.10;99.90;;;;;;4995140;28;20038;-70
2023/10/20 01:13:14;;;;;;;39.42;16.52;;;17.00;99.90;;;;;;4994587;28;20471;-70
2023/10/20 01:15:41;;;;;;;34.03;17.25;;;17.10;99.90;;;;;;4995110;28;20026;-71
2023/10/20 01:18:09;;;;;;;32.55;16.15;;;17.10;99.90;;;;;;4995080;28;20022;-70
2023/10/20 01:20:35;;;;;;;38.60;16.15;;;17.00;99.90;;;;;;4994619;28;20026;-70
2023/10/20 01:23:01;;;;;;;29.67;15.30;;;17.00;99.90;;;;;;4995062;28;20029;-70
2023/10/20 01:25:27;;;;;;;36.47;17.08;;;17.00;99.90;;;;;;4994922;28;20070;-72
2023/10/20 01:27:54;;;;;;;29.23;15.00;;;17.10;99.90;;;;;;4994717;28;20145;-70
2023/10/20 01:30:21;;;;;;;35.40;16.60;;;17.00;99.90;;;;;;4994729;28;20066;-70
2023/10/20 01:32:46;;;;;;;30.45;16.45;;;17.10;99.90;;;;;;4994395;28;20049;-70
2023/10/20 01:35:13;;;;;;;39.03;17.55;;;17.10;99.90;;;;;;4994463;28;20035;-70
2023/10/20 01:37:40;;;;;;;32.92;15.60;;;17.00;99.90;;;;;;4994528;28;20383;-70
2023/10/20 01:40:09;;;;;;;39.28;15.35;;;17.10;99.90;;;;;;4994600;28;20030;-70
2023/10/20 01:42:36;;;;;;;42.95;17.67;;;17.10;99.90;;;;;;4994551;28;20113;-70
2023/10/20 01:45:02;;;;;;;35.05;16.90;;;17.10;99.90;;;;;;4994700;28;20031;-70
2023/10/20 01:47:28;;;;;;;33.60;15.88;;;17.10;99.90;;;;;;4994490;28;20023;-70
2023/10/20 01:49:54;;;;;;;36.20;15.65;;;17.10;99.90;;;;;;4994514;28;20042;-71
2023/10/20 01:52:20;;;;;;;34.70;14.55;;;17.10;99.90;;;;;;4994489;28;20046;-70
2023/10/20 01:54:46;;;;;;;39.42;15.32;;;17.20;99.90;;;;;;4994722;28;20030;-70
2023/10/20 01:57:12;;;;;;;36.38;16.25;;;17.20;99.90;;;;;;4994538;28;20031;-70
2023/10/20 01:59:38;;;;;;;38.58;15.70;;;17.10;99.90;;;;;;4994246;28;20057;-71
2023/10/20 02:02:04;;;;;;;44.15;15.45;;;17.20;99.90;;;;;;4994297;28;20033;-71
2023/10/20 02:04:31;;;;;;;33.67;15.00;;;17.20;99.90;;;;;;4994395;28;20026;-70
2023/10/20 02:06:57;;;;;;;38.15;14.93;;;17.20;99.90;;;;;;4994287;28;20492;-70
2023/10/20 02:09:26;;;;;;;35.22;14.07;;;17.20;99.90;;;;;;4993996;28;20523;-70
2023/10/20 02:11:56;;;;;;;39.08;14.93;;;17.20;99.90;;;;;;4993146;28;20027;-71
2023/10/20 02:14:23;;;;;;;32.88;13.05;;;17.20;99.90;;;;;;4993128;28;20046;-70
2023/10/20 02:16:50;;;;;;;41.45;15.02;;;17.20;99.90;;;;;;4994328;28;20101;-70
2023/10/20 02:19:17;;;;;;;47.30;15.32;;;17.30;99.90;;;;;;4994287;28;20049;-70
2023/10/20 02:21:42;;;;;;;46.47;14.57;;;17.30;99.90;;;;;;4994179;28;20032;-70
2023/10/20 02:24:08;;;;;;;38.95;15.02;;;17.30;99.90;;;;;;4993951;28;20030;-70
2023/10/20 02:26:34;;;;;;;44.25;15.02;;;17.30;99.90;;;;;;4994117;28;20018;-70
2023/10/20 02:29:00;;;;;;;52.70;17.15;;;17.30;99.90;;;;;;4994049;28;20061;-71
2023/10/20 02:31:26;;;;;;;43.78;15.15;;;17.30;99.90;;;;;;4993885;28;20501;-70
2023/10/20 02:33:52;;;;;;;37.00;13.55;;;17.30;99.90;;;;;;4993865;28;20125;-70
2023/10/20 02:36:19;;;;;;;52.42;15.32;;;17.30;99.90;;;;;;4993825;28;20426;-70
2023/10/20 02:38:46;;;;;;;41.03;13.82;;;17.30;99.90;;;;;;4993888;28;20030;-70
2023/10/20 02:41:13;;;;;;;39.63;13.65;;;17.30;99.90;;;;;;4993941;28;20383;-70
2023/10/20 02:43:40;;;;;;;44.78;15.35;;;17.30;99.90;;;;;;4993700;28;20023;-70
2023/10/20 02:46:07;;;;;;;33.17;13.63;;;17.30;99.90;;;;;;4993558;28;20156;-70
2023/10/20 02:48:33;;;;;;;37.05;13.43;;;17.30;99.90;;;;;;4993845;28;20117;-71
2023/10/20 02:51:08;;;;;;;37.55;13.13;;;17.30;99.90;;;;;;4992312;28;20105;-70
2023/10/20 02:53:41;;;;;;;42.42;14.40;;;17.40;99.90;;;;;;4993844;28;20026;-71
2023/10/20 02:56:14;;;;;;;;;;;17.30;99.90;;;;;;4993822;28;20084;-70
2023/10/20 02:58:43;;;;;;;28.63;12.05;;;17.40;99.90;;;;;;4993760;28;19906;-70
2023/10/20 03:01:12;;;;;;;32.88;12.40;;;17.40;99.90;;;;;;4993314;28;20056;-70
2023/10/20 03:03:38;;;;;;;26.35;12.55;;;17.30;99.90;;;;;;4993528;28;20463;-70
2023/10/20 03:06:06;;;;;;;34.63;12.88;;;17.40;99.90;;;;;;4993475;28;20498;-71
2023/10/20 03:08:34;;;;;;;35.28;11.93;;;17.40;99.90;;;;;;4993283;28;20026;-70
2023/10/20 03:11:00;;;;;;;44.97;12.60;;;17.40;99.90;;;;;;4993347;28;20450;-70
2023/10/20 03:13:26;;;;;;;33.58;11.63;;;17.40;99.90;;;;;;4993449;28;20434;-70
2023/10/20 03:15:55;;;;;;;43.20;13.32;;;17.40;99.90;;;;;;4993433;28;20451;-70
2023/10/20 03:18:23;;;;;;;40.55;10.93;;;17.40;99.90;;;;;;4993347;28;20027;-70
2023/10/20 03:20:50;;;;;;;38.47;11.48;;;17.40;99.90;;;;;;4993199;28;20447;-71
2023/10/20 03:23:23;;;;;;;40.47;10.05;;;17.50;99.90;;;;;;4996692;28;20030;-71
2023/10/20 03:25:49;;;;;;;49.75;10.60;;;17.50;99.90;;;;;;4997397;28;20471;-70
2023/10/20 03:28:15;;;;;;;39.70;11.25;;;17.50;99.90;;;;;;4997407;28;20089;-70
2023/10/20 03:30:41;;;;;;;39.60;10.95;;;17.60;99.90;;;;;;4996919;28;20474;-70
2023/10/20 03:33:12;;;;;;;37.83;9.60;;;17.60;99.90;;;;;;4997035;28;20050;-70
2023/10/20 03:35:39;;;;;;;44.58;10.65;;;17.60;99.90;;;;;;4997216;28;20033;-70
2023/10/20 03:38:06;;;;;;;36.25;9.40;;;17.60;99.90;;;;;;4996955;28;20030;-70
2023/10/20 03:40:40;;;;;;;36.63;10.25;;;17.70;99.90;;;;;;4996984;28;20121;-70
2023/10/20 03:43:09;;;;;;;36.00;8.68;;;17.70;99.90;;;;;;4997168;28;20084;-70
2023/10/20 03:45:41;;;;;;;33.70;9.52;;;17.80;99.90;;;;;;4997022;28;20087;-71
2023/10/20 03:48:11;;;;;;;47.55;17.33;;;17.80;99.90;;;;;;4997025;28;20030;-70
2023/10/20 03:50:41;;;;;;;44.60;10.32;;;17.80;99.90;;;;;;4996703;28;20072;-70
2023/10/20 03:53:11;;;;;;;33.40;9.23;;;17.80;99.90;;;;;;4995695;28;20022;-70
2023/10/20 03:55:37;;;;;;;36.88;9.95;;;17.90;99.90;;;;;;5013143;28;20037;-71
2023/10/20 03:58:03;;;;;;;35.50;9.27;;;17.90;99.90;;;;;;5016364;28;20482;-72
2023/10/20 04:00:29;;;;;;;34.72;7.97;;;17.90;99.90;;;;;;5015926;28;20030;-70
2023/10/20 04:02:56;;;;;;;39.33;8.48;;;18.00;99.90;;;;;;5016223;28;20025;-71
2023/10/20 04:05:24;;;;;;;26.17;7.53;;;18.00;99.90;;;;;;5015075;28;20053;-70
2023/10/20 04:07:50;;;;;;;32.65;7.05;;;18.00;99.90;;;;;;5016329;28;20018;-71
2023/10/20 04:10:18;;;;;;;30.02;7.28;;;18.00;99.90;;;;;;5016286;28;20042;-71
2023/10/20 04:12:45;;;;;;;35.20;7.93;;;18.00;99.90;;;;;;5016105;28;20478;-70
2023/10/20 04:15:19;;;;;;;36.72;7.20;;;18.10;99.90;;;;;;5016279;28;20026;-70
2023/10/20 04:17:54;;;;;;;30.92;7.10;;;18.10;99.90;;;;;;5016299;28;20022;-70
2023/10/20 04:20:21;;;;;;;29.13;7.38;;;18.20;99.90;;;;;;5015965;28;20022;-71
2023/10/20 04:22:51;;;;;;;27.77;7.32;;;18.20;99.90;;;;;;5016060;28;20022;-71
2023/10/20 04:25:18;;;;;;;29.95;7.15;;;18.20;99.90;;;;;;5015816;28;20497;-73
2023/10/20 04:28:20;;;;;;;28.45;7.47;;;18.20;99.90;;;;;;5015753;28;20030;-70
2023/10/20 04:47:36;;;;;;;21.90;6.38;;;18.30;99.90;;;;;;5015738;28;20095;-70
2023/10/20 05:07:53;;;;;;;20.42;5.68;;;18.30;99.90;;;;;;5015177;28;20097;-70
2023/10/20 05:10:20;;;;;;;23.20;5.50;;;18.30;99.90;;;;;;5014951;28;20131;-70
2023/10/20 05:12:46;;;;;;;20.13;5.80;;;18.30;99.90;;;;;;5014782;28;20022;-70
2023/10/20 05:15:12;;;;;;;27.77;5.97;;;18.40;99.90;;;;;;5015092;28;20037;-71
2023/10/20 05:17:41;;;;;;;24.08;5.75;;;18.40;99.90;;;;;;5014894;28;20053;-70
2023/10/20 05:20:15;;;;;;;26.80;6.20;;;18.40;99.90;;;;;;5015069;28;20036;-71
2023/10/20 05:22:41;;;;;;;30.17;5.88;;;18.40;99.90;;;;;;5013708;28;20040;-70
2023/10/20 05:25:13;;;;;;;30.42;6.22;;;18.40;99.90;;;;;;5014312;28;20029;-71
2023/10/20 05:27:39;;;;;;;32.83;6.38;;;18.40;99.90;;;;;;5014683;28;20037;-71
2023/10/20 05:30:07;;;;;;;27.35;6.57;;;18.50;99.90;;;;;;5014405;28;20041;-70
2023/10/20 05:32:33;;;;;;;19.15;6.15;;;18.40;99.90;;;;;;5014344;28;20048;-70
2023/10/20 05:34:59;;;;;;;19.48;5.45;;;18.50;99.90;;;;;;5014363;28;20462;-71
2023/10/20 05:37:26;;;;;;;18.60;5.25;;;18.50;99.90;;;;;;5014574;28;20034;-70
2023/10/20 05:39:52;;;;;;;18.75;5.35;;;18.60;99.90;;;;;;5014197;28;20474;-70
2023/10/20 05:42:19;;;;;;;20.77;5.43;;;18.60;99.90;;;;;;5014141;28;20548;-70
2023/10/20 05:44:58;;;;;;;19.80;5.68;;;18.60;99.90;;;;;;5014347;28;20431;-70
2023/10/20 05:47:27;;;;;;;36.10;7.13;;;18.60;99.90;;;;;;5014393;28;20105;-70
2023/10/20 05:49:53;;;;;;;20.27;6.05;;;18.60;99.90;;;;;;5014265;28;20042;-70
2023/10/20 05:52:20;;;;;;;24.80;5.72;;;18.70;99.90;;;;;;5014516;28;20370;-70
2023/10/20 05:54:45;;;;;;;24.75;6.85;;;18.70;99.90;;;;;;5014149;28;20018;-70
2023/10/20 05:57:11;;;;;;;25.00;5.00;;;18.70;99.90;;;;;;5014168;28;20080;-70
2023/10/20 05:59:38;;;;;;;20.73;5.65;;;18.60;99.90;;;;;;5014097;28;20123;-71
2023/10/20 06:02:05;;;;;;;19.00;5.35;;;18.70;99.90;;;;;;5011599;28;20036;-70
2023/10/20 06:04:31;;;;;;;23.42;5.30;;;18.70;99.90;;;;;;4994288;28;20034;-70
2023/10/20 06:06:57;;;;;;;29.10;5.07;;;18.80;99.90;;;;;;4996044;28;20118;-73
2023/10/20 06:09:25;;;;;;;24.95;5.45;;;18.70;99.90;;;;;;5013422;28;20033;-70
2023/10/20 06:11:53;;;;;;;27.50;5.43;;;18.70;99.90;;;;;;5013221;28;20112;-70
2023/10/20 06:14:20;;;;;;;23.70;5.45;;;18.80;99.90;;;;;;5013769;28;20080;-70
2023/10/20 06:16:46;;;;;;;22.50;6.03;;;18.80;99.90;;;;;;5013943;28;20034;-70
2023/10/20 06:19:15;;;;;;;23.17;5.20;;;18.80;99.90;;;;;;5013499;28;20386;-70
2023/10/20 06:21:50;;;;;;;24.10;4.72;;;18.80;99.90;;;;;;5013517;28;20553;-70
2023/10/20 06:24:16;;;;;;;21.88;5.57;;;18.90;99.90;;;;;;5013517;28;20021;-70
2023/10/20 06:26:43;;;;;;;23.67;6.22;;;18.90;99.90;;;;;;5013810;28;20034;-70
2023/10/20 06:34:33;;;;;;;26.88;5.80;;;18.90;99.90;;;;;;5014046;28;20056;-70
2023/10/20 06:37:08;;;;;;;22.00;5.68;;;19.00;99.90;;;;;;5013423;28;20498;-70
2023/10/20 06:39:40;;;;;;;29.67;6.25;;;19.00;99.90;;;;;;5013465;28;20073;-70
2023/10/20 06:42:06;;;;;;;36.83;6.82;;;19.00;99.90;;;;;;5013211;28;20022;-70
2023/10/20 06:44:34;;;;;;;25.63;6.10;;;19.10;99.90;;;;;;5012720;28;20029;-70
2023/10/20 06:47:00;;;;;;;28.73;6.00;;;19.00;99.90;;;;;;5012912;28;20045;-70
2023/10/20 06:49:26;;;;;;;22.95;5.90;;;19.10;99.90;;;;;;5012448;28;20038;-70
2023/10/20 06:51:52;;;;;;;33.65;6.40;;;19.10;99.90;;;;;;5012755;28;20087;-70
2023/10/20 06:54:18;;;;;;;27.42;6.30;;;19.10;99.90;;;;;;5012903;28;20108;-70
2023/10/20 06:56:48;;;;;;;32.70;6.80;;;19.10;99.90;;;;;;5012623;28;20091;-70
2023/10/20 06:59:16;;;;;;;31.15;6.38;;;19.10;99.90;;;;;;5013223;28;20491;-71
2023/10/20 07:01:43;;;;;;;33.17;7.53;;;19.20;99.90;;;;;;5013433;28;20022;-70
2023/10/20 07:04:09;;;;;;;27.13;6.88;;;19.20;99.90;;;;;;5013296;28;20026;-70
2023/10/20 07:06:42;;;;;;;31.60;6.35;;;19.20;99.90;;;;;;5013423;28;20616;-70
2023/10/20 07:09:12;;;;;;;30.15;5.63;;;19.30;99.90;;;;;;5013237;28;20149;-70
2023/10/20 07:11:42;;;;;;;20.67;5.55;;;19.30;99.90;;;;;;5013372;28;20113;-70
2023/10/20 07:14:10;;;;;;;33.40;8.13;;;19.30;99.90;;;;;;5013519;28;20018;-70
2023/10/20 07:16:36;;;;;;;34.63;7.18;;;19.40;99.90;;;;;;5013357;28;20026;-70
2023/10/20 07:19:03;;;;;;;31.63;6.57;;;19.40;99.90;;;;;;5013306;28;20030;-70
2023/10/20 07:21:29;;;;;;;27.48;6.20;;;19.50;99.90;;;;;;5013231;28;20018;-70
2023/10/20 07:23:57;;;;;;;26.23;6.10;;;19.50;99.90;;;;;;5013404;28;20508;-70
2023/10/20 07:26:26;;;;;;;30.90;6.68;;;19.60;99.90;;;;;;5013100;28;20029;-70
2023/10/20 07:28:51;;;;;;;37.25;6.20;;;19.70;99.90;;;;;;5013320;28;20022;-70
2023/10/20 07:31:21;;;;;;;24.50;6.25;;;19.70;99.90;;;;;;5013101;28;20072;-70
2023/10/20 07:33:51;;;;;;;27.05;6.63;;;19.80;99.90;;;;;;5012949;28;20056;-70
2023/10/20 07:36:17;;;;;;;35.90;5.70;;;19.90;99.90;;;;;;5013102;28;20390;-70
2023/10/20 07:38:43;;;;;;;33.10;6.45;;;19.90;99.90;;;;;;5013165;28;20592;-70
2023/10/20 07:41:11;;;;;;;25.98;6.05;;;19.90;99.90;;;;;;5012842;28;20018;-70
2023/10/20 07:43:41;;;;;;;36.13;7.55;;;20.00;99.90;;;;;;5012975;28;20030;-70
2023/10/20 07:46:14;;;;;;;27.55;6.72;;;19.90;99.90;;;;;;5012771;28;20121;-70
2023/10/20 07:48:40;;;;;;;36.08;6.00;;;20.00;99.90;;;;;;5012966;28;20477;-71
2023/10/20 07:51:06;;;;;;;26.15;6.20;;;19.90;99.90;;;;;;5012804;28;20044;-70
2023/10/20 07:53:32;;;;;;;24.63;5.35;;;19.90;99.90;;;;;;5012998;28;20058;-70
2023/10/20 07:55:58;;;;;;;26.35;5.75;;;19.90;99.90;;;;;;5012803;28;20054;-70
2023/10/20 07:58:24;;;;;;;28.02;6.43;;;19.90;99.90;;;;;;5012706;28;20029;-70
2023/10/20 08:00:51;;;;;;;24.88;5.47;;;19.90;99.90;;;;;;5012929;28;20026;-70
2023/10/20 08:03:16;;;;;;;31.77;6.05;;;19.90;99.90;;;;;;5012796;28;20136;-70
2023/10/20 08:05:42;;;;;;;28.30;6.32;;;19.90;99.90;;;;;;5012851;28;20506;-70
2023/10/20 08:08:08;;;;;;;21.02;5.07;;;19.90;99.90;;;;;;5012922;28;20386;-70
2023/10/20 08:10:35;;;;;;;31.15;6.50;;;19.90;99.90;;;;;;5016083;28;20037;-70
2023/10/20 08:13:02;;;;;;;21.35;5.68;;;19.90;99.90;;;;;;5016273;28;20048;-70
2023/10/20 08:15:29;;;;;;;29.10;5.50;;;19.90;99.90;;;;;;5016325;28;20033;-70
2023/10/20 08:17:55;;;;;;;26.45;6.88;;;19.90;99.90;;;;;;5016497;28;20423;-71
2023/10/20 08:20:21;;;;;;;26.40;6.20;;;19.90;99.90;;;;;;5015024;28;20121;-70
2023/10/20 08:22:50;;;;;;;29.02;6.97;;;19.90;99.90;;;;;;5015614;28;20092;-71
2023/10/20 08:25:16;;;;;;;25.65;5.45;;;19.90;99.90;;;;;;5015718;28;20359;-70
2023/10/20 08:27:42;;;;;;;25.88;5.97;;;19.90;99.90;;;;;;5015899;28;20025;-70
2023/10/20 08:30:08;;;;;;;35.10;7.18;;;19.90;99.90;;;;;;5015643;28;20397;-70
2023/10/20 08:32:34;;;;;;;33.58;6.78;;;19.80;99.90;;;;;;5015314;28;20054;-71
2023/10/20 08:35:07;;;;;;;32.88;7.43;;;19.80;99.90;;;;;;5015808;28;20030;-70
2023/10/20 08:37:36;;;;;;;27.65;7.68;;;19.80;99.90;;;;;;5015866;28;20026;-70
2023/10/20 08:40:02;;;;;;;23.17;5.75;;;19.80;99.90;;;;;;5015833;28;20386;-70
2023/10/20 08:42:29;;;;;;;28.35;6.32;;;19.80;99.90;;;;;;5015562;28;20041;-70
2023/10/20 08:44:56;;;;;;;29.35;6.65;;;19.70;99.90;;;;;;5015670;28;20029;-70
2023/10/20 08:47:23;;;;;;;28.23;7.72;;;19.70;99.90;;;;;;5015505;28;20022;-70
2023/10/20 08:49:49;;;;;;;21.50;7.13;;;19.70;99.90;;;;;;5015067;28;20382;-70
2023/10/20 08:52:17;;;;;;;30.30;6.35;;;19.70;99.90;;;;;;5014659;28;20022;-70
2023/10/20 08:54:43;;;;;;;30.23;6.68;;;19.70;99.90;;;;;;5013941;28;20026;-70
2023/10/20 08:57:11;;;;;;;23.10;6.50;;;19.70;99.90;;;;;;5013856;28;20419;-70
2023/10/20 08:59:37;;;;;;;24.88;8.43;;;19.70;99.90;;;;;;5013993;28;20045;-70
2023/10/20 09:02:03;;;;;;;24.95;7.90;;;19.60;99.90;;;;;;5014410;28;20033;-70
2023/10/20 09:04:29;;;;;;;30.30;6.25;;;19.70;99.90;;;;;;5014066;28;20402;-70
2023/10/20 09:06:56;;;;;;;34.28;7.97;;;19.70;99.90;;;;;;5014327;28;20030;-70
2023/10/20 09:09:21;;;;;;;29.35;7.22;;;19.60;99.90;;;;;;5014424;28;20029;-70
2023/10/20 09:11:47;;;;;;;33.88;6.70;;;19.70;99.90;;;;;;5013455;28;20080;-70
2023/10/20 09:14:14;;;;;;;28.60;7.43;;;19.70;99.90;;;;;;5015009;28;20050;-70
2023/10/20 09:16:43;;;;;;;26.52;7.35;;;19.70;99.90;;;;;;5015136;28;20464;-69
2023/10/20 09:19:11;;;;;;;32.58;8.07;;;19.80;99.90;;;;;;5014992;28;20471;-70
2023/10/20 09:21:41;;;;;;;36.90;6.68;;;19.70;99.90;;;;;;5015089;28;20022;-70
2023/10/20 09:24:11;;;;;;;24.80;7.32;;;19.80;99.90;;;;;;5015562;28;20046;-70
2023/10/20 09:26:40;;;;;;;26.48;6.72;;;19.80;99.90;;;;;;5014952;28;20042;-70
2023/10/20 09:29:07;;;;;;;32.70;7.10;;;19.80;99.90;;;;;;5013196;28;20030;-69
2023/10/20 09:31:34;;;;;;;24.58;7.78;;;19.90;99.90;;;;;;5014725;28;20026;-70
2023/10/20 09:34:00;;;;;;;26.98;7.53;;;19.90;99.90;;;;;;5013582;28;20509;-70
2023/10/20 09:36:32;;;;;;;25.88;7.60;;;19.90;99.90;;;;;;5014464;28;20034;-70
2023/10/20 09:38:59;;;;;;;24.30;6.90;;;20.00;99.90;;;;;;5013983;28;20123;-70
2023/10/20 09:41:29;;;;;;;32.75;7.85;;;20.00;99.90;;;;;;5014751;28;20509;-70
2023/10/20 09:44:02;;;;;;;23.05;6.35;;;20.10;99.90;;;;;;5014696;28;20080;-70
2023/10/20 09:46:46;;;;;;;26.33;7.57;;;20.10;99.90;;;;;;5014403;28;20475;-70
2023/10/20 09:49:22;;;;;;;24.20;6.28;;;20.20;99.90;;;;;;5013870;28;20030;-70
2023/10/20 09:51:49;;;;;;;29.17;6.35;;;20.20;99.90;;;;;;5013598;28;20029;-70
2023/10/20 09:54:18;;;;;;;24.15;6.70;;;20.20;99.90;;;;;;5014561;28;20116;-70
2023/10/20 09:56:46;;;;;;;31.98;6.88;;;20.30;99.90;;;;;;5014507;28;20029;-70
2023/10/20 09:59:27;;;;;;;28.55;6.35;;;20.40;99.90;;;;;;5013952;28;20030;-70
2023/10/20 10:01:56;;;;;;;31.60;7.73;;;20.40;99.90;;;;;;5013140;28;20025;-70
2023/10/20 10:04:39;;;;;;;29.23;6.72;;;20.40;99.90;;;;;;5013377;28;20044;-70
2023/10/20 10:07:08;;;;;;;25.83;6.90;;;20.50;99.90;;;;;;5013581;28;20033;-70
2023/10/20 10:09:38;;;;;;;29.63;7.70;;;20.50;99.90;;;;;;5013906;28;20026;-70
2023/10/20 10:12:15;;;;;;;28.75;7.55;;;20.50;99.90;;;;;;5014061;28;20442;-70
2023/10/20 10:14:41;;;;;;;34.08;7.28;;;20.50;99.90;;;;;;5014168;28;20033;-70
2023/10/20 10:17:10;;;;;;;29.30;8.02;;;20.50;99.90;;;;;;5014016;28;20018;-70
2023/10/20 10:19:56;;;;;;;33.03;6.70;;;20.60;99.90;;;;;;5013910;28;20025;-70
2023/10/20 10:22:26;;;;;;;29.65;7.35;;;20.50;99.90;;;;;;5013806;28;20038;-70
2023/10/20 10:24:57;;;;;;;25.17;6.47;;;20.50;99.90;;;;;;5013109;28;20022;-69
2023/10/20 10:27:27;;;;;;;28.63;7.47;;;20.50;99.90;;;;;;5013760;28;20022;-69
2023/10/20 10:29:59;;;;;;;25.77;6.38;;;20.50;99.90;;;;;;5014054;28;20437;-70
2023/10/20 10:32:36;;;;;;;28.75;6.85;;;20.50;99.90;;;;;;5013124;28;20050;-69
2023/10/20 10:35:06;;;;;;;36.95;7.22;;;20.50;99.90;;;;;;5013995;28;20076;-70
2023/10/20 10:37:37;;;;;;;31.90;6.85;;;20.50;99.90;;;;;;5013883;28;20371;-69
2023/10/20 10:40:13;;;;;;;29.17;7.13;;;20.50;99.90;;;;;;5012726;28;20486;-69
2023/10/20 10:42:49;;;;;;;26.75;7.43;;;20.50;99.90;;;;;;5013497;28;20045;-70
2023/10/20 10:45:24;;;;;;;35.50;8.07;;;20.50;99.90;;;;;;5013709;28;20375;-70
2023/10/20 10:47:51;;;;;;;28.00;7.78;;;20.50;99.90;;;;;;5013662;28;20072;-70
2023/10/20 10:50:20;;;;;;;32.67;6.97;;;20.50;99.90;;;;;;5013612;28;20482;-70
2023/10/20 10:52:47;;;;;;;26.73;7.78;;;20.50;99.90;;;;;;5013395;28;20120;-70
2023/10/20 10:55:13;;;;;;;32.13;7.78;;;20.60;99.90;;;;;;5013208;28;20112;-70
2023/10/20 10:57:41;;;;;;;31.90;8.30;;;20.60;99.90;;;;;;5013310;28;20105;-70
2023/10/20 11:00:08;;;;;;;28.98;7.22;;;20.60;99.90;;;;;;5013158;28;20025;-70
2023/10/20 11:02:34;;;;;;;29.40;7.60;;;20.60;99.90;;;;;;5013348;28;20033;-70
2023/10/20 11:05:02;;;;;;;25.13;7.18;;;20.70;99.90;;;;;;5013351;28;20099;-70
2023/10/20 11:07:28;;;;;;;33.65;8.55;;;20.70;99.90;;;;;;5013425;28;20481;-70
2023/10/20 11:09:57;;;;;;;41.38;9.52;;;20.70;99.90;;;;;;5013196;28;20053;-70
2023/10/20 11:12:23;;;;;;;34.92;9.57;;;20.70;99.90;;;;;;5013249;28;20033;-70
2023/10/20 11:14:50;;;;;;;46.55;9.55;;;20.70;99.90;;;;;;5010463;28;20049;-70
2023/10/20 11:17:19;;;;;;;46.97;10.18;;;20.80;99.90;;;;;;5010366;28;20033;-70
2023/10/20 11:19:45;;;;;;;39.13;9.40;;;20.70;99.90;;;;;;5012873;28;20062;-70
2023/10/20 11:22:17;;;;;;;40.63;9.45;;;20.80;99.90;;;;;;5013185;28;20377;-69
2023/10/20 11:24:52;;;;;;;39.97;9.63;;;20.80;99.90;;;;;;5013184;28;20101;-70
2023/10/20 11:27:21;;;;;;;41.65;9.65;;;20.80;99.90;;;;;;5013313;28;20390;-70
2023/10/20 11:29:50;;;;;;;48.95;18.30;;;20.80;99.90;;;;;;5013015;28;20038;-70
2023/10/20 11:32:18;;;;;;;44.08;10.82;;;20.80;99.90;;;;;;5012826;28;20044;-70
2023/10/20 11:34:45;;;;;;;45.05;10.88;;;20.80;99.90;;;;;;5012691;28;20037;-70
2023/10/20 11:37:11;;;;;;;43.80;9.77;;;20.80;99.90;;;;;;5012739;28;20018;-70
2023/10/20 11:39:37;;;;;;;38.53;10.27;;;20.80;99.90;;;;;;5010196;28;20030;-70
2023/10/20 11:42:07;;;;;;;40.83;9.70;;;20.80;99.90;;;;;;5010302;28;20152;-70
2023/10/20 11:44:32;;;;;;;39.10;9.10;;;20.80;99.90;;;;;;5014875;28;20082;-70
2023/10/20 11:46:58;;;;;;;43.88;9.68;;;20.80;99.90;;;;;;5016489;28;20382;-70
2023/10/20 11:49:25;;;;;;;54.67;10.73;;;20.80;99.90;;;;;;5016336;28;20029;-70
2023/10/20 11:51:51;;;;;;;39.72;9.90;;;20.70;99.90;;;;;;5016559;28;20544;-70
2023/10/20 11:54:17;;;;;;;38.17;9.80;;;20.70;99.90;;;;;;5016103;28;20109;-69
2023/10/20 11:56:43;;;;;;;42.60;10.57;;;20.70;99.90;;;;;;5016474;28;20026;-70
2023/10/20 11:59:12;;;;;;;38.10;9.93;;;20.70;99.90;;;;;;5016192;28;20061;-70
2023/10/20 12:01:39;;;;;;;30.48;8.82;;;20.70;99.90;;;;;;5015720;28;20056;-69
2023/10/20 12:04:11;;;;;;;37.15;10.52;;;20.70;99.90;;;;;;5016079;28;20022;-70
2023/10/20 12:06:37;;;;;;;;;;;20.70;99.90;;;;;;5016885;28;20030;-70
2023/10/20 12:09:08;;;;;;;38.92;8.93;;;20.70;99.90;;;;;;5016270;28;20376;-70
2023/10/20 12:11:36;;;;;;;33.88;9.63;;;20.70;99.90;;;;;;5016353;28;20034;-70
2023/10/20 12:14:03;;;;;;;36.30;9.45;;;20.70;99.90;;;;;;5016106;28;20448;-70
2023/10/20 12:16:29;;;;;;;40.13;9.50;;;20.70;99.90;;;;;;5016150;28;20026;-70
2023/10/20 12:18:55;;;;;;;34.75;9.40;;;20.60;99.90;;;;;;5016332;28;20034;-70
2023/10/20 12:21:21;;;;;;;38.53;9.77;;;20.60;99.90;;;;;;5015797;28;20561;-70
2023/10/20 12:23:46;;;;;;;34.85;9.85;;;20.60;99.90;;;;;;5016060;28;20026;-70
2023/10/20 12:26:12;;;;;;;40.10;10.20;;;20.60;99.90;;;;;;5015934;28;20025;-70
2023/10/20 12:28:38;;;;;;;42.90;10.10;;;20.60;99.90;;;;;;5015713;28;20029;-70
2023/10/20 12:31:04;;;;;;;39.22;10.38;;;20.60;99.90;;;;;;5011869;28;20037;-70
2023/10/20 12:33:31;;;;;;;40.25;10.27;;;20.50;99.90;;;;;;5012816;28;20056;-69
2023/10/20 12:35:57;;;;;;;38.42;9.55;;;20.60;99.90;;;;;;5014141;28;20022;-69
2023/10/20 12:38:23;;;;;;;40.55;11.02;;;20.50;99.90;;;;;;5015602;28;20075;-70
2023/10/20 12:40:49;;;;;;;35.65;9.73;;;20.50;99.90;;;;;;5015381;28;20057;-70
2023/10/20 12:43:16;;;;;;;30.10;8.98;;;20.50;99.90;;;;;;5015293;28;20437;-70
2023/10/20 12:45:42;;;;;;;46.13;11.82;;;20.50;99.90;;;;;;5013820;28;20040;-69
2023/10/20 12:48:08;;;;;;;40.42;10.50;;;20.50;99.90;;;;;;5015404;28;20022;-69
2023/10/20 12:50:34;;;;;;;36.88;10.80;;;20.50;99.90;;;;;;5015223;28;20061;-70
2023/10/20 12:53:00;;;;;;;38.85;11.38;;;20.50;99.90;;;;;;5015182;28;20026;-69
2023/10/20 12:55:26;;;;;;;38.85;10.35;;;20.40;99.90;;;;;;5011272;28;20036;-70
2023/10/20 12:57:53;;;;;;;37.58;10.38;;;20.40;99.90;;;;;;5012496;28;20381;-69
2023/10/20 13:00:20;;;;;;;37.47;10.15;;;20.40;99.90;;;;;;5013281;28;20490;-69
2023/10/20 13:02:49;;;;;;;41.97;10.25;;;20.40;99.90;;;;;;5015261;28;20021;-69
2023/10/20 13:05:17;;;;;;;38.83;10.93;;;20.40;99.90;;;;;;5015416;28;20034;-69
2023/10/20 13:07:43;;;;;;;44.55;11.75;;;20.40;99.90;;;;;;5013821;28;20490;-69
2023/10/20 13:10:09;;;;;;;48.50;11.90;;;20.40;99.90;;;;;;5013881;28;20038;-69
2023/10/20 13:12:36;;;;;;;48.33;12.70;;;20.40;99.90;;;;;;5014946;28;20022;-69
2023/10/20 13:15:03;;;;;;;43.72;11.48;;;20.40;99.90;;;;;;5014935;28;20116;-69
2023/10/20 13:17:30;;;;;;;48.58;10.77;;;20.40;99.90;;;;;;5014852;28;20026;-69